createdAt,value
2022-08-11T00:01:05.773Z,38.25
2022-08-11T00:03:43.373Z,38.19
2022-08-11T00:06:13.974Z,38.79
2022-08-11T00:08:41.482Z,38.51
2022-08-11T00:11:09.162Z,38.80
2022-08-11T00:13:38.173Z,38.87
2022-08-11T00:16:12.008Z,39.51
2022-08-11T00:18:40.650Z,39.69
2022-08-11T00:21:08.053Z,41.29
2022-08-11T00:23:36.030Z,40.80
2022-08-11T00:26:05.822Z,40.96
2022-08-11T00:28:34.718Z,40.59
2022-08-11T00:31:04.413Z,40.81
2022-08-11T00:33:41.371Z,41.79
2022-08-11T00:36:13.082Z,41.18
2022-08-11T00:38:41.924Z,41.12
2022-08-11T00:41:27.779Z,42.33
2022-08-11T00:44:13.135Z,41.98
2022-08-11T00:46:46.493Z,42.79
2022-08-11T00:49:36.871Z,42.01
2022-08-11T00:52:22.685Z,42.94
2022-08-11T00:55:02.232Z,43.43
2022-08-11T00:57:38.501Z,43.26
2022-08-11T01:00:11.250Z,43.56
2022-08-11T01:02:38.439Z,44.22
2022-08-11T01:05:08.915Z,43.33
2022-08-11T01:08:02.408Z,44.05
2022-08-11T01:10:34.687Z,43.31
2022-08-11T01:13:21.747Z,43.06
2022-08-11T01:16:07.139Z,43.00
2022-08-11T01:18:55.175Z,42.68
2022-08-11T01:21:36.071Z,43.06
2022-08-11T01:24:23.177Z,43.60
2022-08-11T01:26:52.015Z,42.62
2022-08-11T01:29:30.148Z,43.02
2022-08-11T01:32:02.015Z,42.46
2022-08-11T01:34:45.684Z,42.64
2022-08-11T01:37:17.613Z,42.41
2022-08-11T01:40:24.518Z,42.64
2022-08-11T01:43:26.712Z,43.40
2022-08-11T01:46:01.168Z,42.78
2022-08-11T01:48:33.216Z,43.06
2022-08-11T01:51:04.712Z,43.15
2022-08-11T01:53:51.960Z,42.80
2022-08-11T01:56:39.093Z,43.31
2022-08-11T01:59:19.229Z,42.58
2022-08-11T02:01:47.611Z,43.09
2022-08-11T02:04:19.492Z,42.34
2022-08-11T02:06:57.335Z,42.94
2022-08-11T02:09:49.880Z,42.48
2022-08-11T02:12:27.050Z,42.51
2022-08-11T02:15:05.227Z,42.87
2022-08-11T02:17:37.139Z,41.78
2022-08-11T02:20:34.437Z,42.00
2022-08-11T02:24:04.259Z,42.69
2022-08-11T02:26:24.385Z,43.30
2022-08-11T02:29:13.645Z,42.92
2022-08-11T02:32:28.490Z,43.54
2022-08-11T02:35:04.348Z,41.35
2022-08-11T02:40:01.223Z,42.25
2022-08-11T02:42:48.169Z,42.47
2022-08-11T02:45:38.595Z,42.33
2022-08-11T02:48:28.101Z,42.71
2022-08-11T02:51:03.165Z,42.18
2022-08-11T02:53:58.176Z,42.03
2022-08-11T02:56:45.419Z,42.97
2022-08-11T02:59:51.821Z,42.02
2022-08-11T03:02:31.823Z,42.45
2022-08-11T03:05:08.285Z,42.42
2022-08-11T03:07:55.108Z,42.14
2022-08-11T03:10:28.828Z,42.20
2022-08-11T03:13:27.986Z,41.56
2022-08-11T03:16:17.491Z,41.68
2022-08-11T03:18:57.405Z,40.83
2022-08-11T03:22:01.408Z,42.62
2022-08-11T03:24:29.156Z,42.02
2022-08-11T03:26:56.720Z,41.79
2022-08-11T03:29:25.031Z,41.89
2022-08-11T03:32:02.012Z,42.30
2022-08-11T03:34:30.249Z,43.53
2022-08-11T03:37:17.348Z,42.31
2022-08-11T03:39:56.605Z,42.66
2022-08-11T03:42:40.882Z,42.72
2022-08-11T03:45:24.053Z,42.44
2022-08-11T03:47:58.438Z,42.36
2022-08-11T03:50:44.625Z,42.77
2022-08-11T03:53:20.388Z,42.59
2022-08-11T03:55:54.036Z,42.42
2022-08-11T03:58:46.253Z,41.81
2022-08-11T04:01:34.941Z,41.80
2022-08-11T04:04:08.238Z,42.72
2022-08-11T04:06:55.672Z,43.05
2022-08-11T04:09:47.825Z,42.27
2022-08-11T04:12:35.789Z,41.11
2022-08-11T04:15:32.876Z,39.91
2022-08-11T04:18:05.060Z,39.95
2022-08-11T04:20:44.814Z,38.51
2022-08-11T04:23:12.047Z,38.53
2022-08-11T04:26:18.981Z,39.09
2022-08-11T04:29:09.819Z,38.72
2022-08-11T04:31:52.262Z,39.35
2022-08-11T04:34:38.842Z,38.61
2022-08-11T04:37:31.883Z,37.86
2022-08-11T04:40:02.033Z,37.80
2022-08-11T04:42:48.169Z,39.18
2022-08-11T04:45:34.248Z,40.68
2022-08-11T04:48:20.196Z,39.50
2022-08-11T04:51:25.077Z,38.14
2022-08-11T04:54:17.248Z,38.21
2022-08-11T04:57:03.875Z,38.29
2022-08-11T04:59:50.086Z,38.10
2022-08-11T05:02:26.292Z,36.91
2022-08-11T05:05:31.266Z,36.00
2022-08-11T05:07:58.382Z,36.34
2022-08-11T05:10:29.386Z,36.32
2022-08-11T05:12:57.342Z,36.54
2022-08-11T05:15:50.942Z,35.76
2022-08-11T05:18:40.947Z,35.63
2022-08-11T05:21:27.707Z,35.57
2022-08-11T05:24:17.178Z,35.13
2022-08-11T05:27:03.755Z,34.73
2022-08-11T05:30:06.063Z,35.48
2022-08-11T05:32:58.005Z,36.01
2022-08-11T05:36:02.382Z,35.83
2022-08-11T05:38:40.067Z,37.82
2022-08-11T05:41:26.178Z,36.03
2022-08-11T05:44:19.696Z,37.16
2022-08-11T05:47:08.145Z,35.54
2022-08-11T05:49:54.145Z,36.35
2022-08-11T05:52:44.121Z,37.33
2022-08-11T05:55:33.652Z,36.17
2022-08-11T05:58:05.384Z,36.58
2022-08-11T06:00:38.673Z,37.84
2022-08-11T06:03:07.527Z,38.45
2022-08-11T06:05:38.507Z,37.44
2022-08-11T06:08:12.590Z,36.71
2022-08-11T06:10:41.533Z,36.30
2022-08-11T06:13:08.804Z,37.17
2022-08-11T06:15:46.606Z,34.64
2022-08-11T06:18:13.986Z,35.81
2022-08-11T06:20:51.399Z,35.41
2022-08-11T06:23:19.459Z,34.54
2022-08-11T06:25:47.337Z,34.18
2022-08-11T06:28:19.936Z,35.98
2022-08-11T06:30:49.031Z,37.36
2022-08-11T06:33:18.678Z,35.48
2022-08-11T06:35:57.491Z,34.99
2022-08-11T06:38:25.039Z,35.19
2022-08-11T06:41:18.491Z,34.17
2022-08-11T06:43:55.178Z,33.22
2022-08-11T06:46:28.529Z,33.27
2022-08-11T06:48:56.382Z,32.72
2022-08-11T06:51:23.555Z,32.55
2022-08-11T06:54:03.302Z,33.40
2022-08-11T06:57:12.163Z,32.18
2022-08-11T06:59:57.469Z,31.93
2022-08-11T07:02:43.514Z,32.60
2022-08-11T07:05:11.977Z,32.85
2022-08-11T07:08:34.779Z,32.02
2022-08-11T07:11:40.569Z,32.34
2022-08-11T07:14:26.835Z,32.62
2022-08-11T07:16:54.046Z,33.86
2022-08-11T07:19:41.299Z,32.46
2022-08-11T07:22:28.353Z,32.25
2022-08-11T07:25:16.664Z,32.31
2022-08-11T07:28:03.630Z,31.48
2022-08-11T07:30:31.068Z,31.11
2022-08-11T07:32:58.922Z,28.92
2022-08-11T07:35:32.552Z,29.88
2022-08-11T07:38:04.818Z,31.43
2022-08-11T07:40:34.848Z,29.22
2022-08-11T07:43:02.341Z,30.49
2022-08-11T07:45:48.342Z,31.14
2022-08-11T07:48:34.455Z,30.12
2022-08-11T07:51:20.406Z,31.11
2022-08-11T07:53:58.363Z,30.98
2022-08-11T07:56:54.830Z,29.59
2022-08-11T08:00:04.189Z,29.99
2022-08-11T08:02:58.170Z,31.90
2022-08-11T08:05:44.285Z,31.59
2022-08-11T08:08:30.184Z,30.72
2022-08-11T08:11:16.434Z,30.19
2022-08-11T08:14:02.360Z,29.87
2022-08-11T08:16:48.724Z,28.59
2022-08-11T08:19:16.398Z,30.13
2022-08-11T08:21:45.336Z,29.00
2022-08-11T08:24:12.777Z,29.36
2022-08-11T08:26:58.823Z,28.33
2022-08-11T08:29:55.027Z,30.67
2022-08-11T08:32:22.370Z,30.71
2022-08-11T08:34:50.219Z,31.03
2022-08-11T08:37:46.087Z,31.84
2022-08-11T08:40:09.683Z,32.70
2022-08-11T08:42:45.271Z,32.27
2022-08-11T08:45:15.780Z,32.75
2022-08-11T08:47:43.579Z,32.02
2022-08-11T08:50:16.618Z,32.39
2022-08-11T08:52:52.724Z,32.29
2022-08-11T08:55:20.218Z,32.22
2022-08-11T08:57:48.929Z,30.90
2022-08-11T09:00:20.763Z,31.60
2022-08-11T09:02:50.369Z,31.29
2022-08-11T09:05:17.912Z,31.53
2022-08-11T09:07:47.591Z,31.21
2022-08-11T09:10:17.443Z,32.85
2022-08-11T09:12:44.646Z,31.66
2022-08-11T09:15:12.229Z,31.08
2022-08-11T09:17:47.247Z,30.61
2022-08-11T09:20:21.873Z,30.72
2022-08-11T11:14:58.795Z,23.96
2022-08-11T11:17:46.798Z,24.50
2022-08-11T11:20:36.764Z,24.93
2022-08-11T11:23:04.086Z,26.09
2022-08-11T11:26:06.493Z,24.49
2022-08-11T11:28:47.290Z,24.05
2022-08-11T11:31:26.598Z,22.59
2022-08-11T11:34:13.097Z,23.48
2022-08-11T11:36:56.257Z,20.55
2022-08-11T11:39:24.313Z,21.37
2022-08-11T11:41:52.377Z,21.90
2022-08-11T11:44:20.298Z,24.08
2022-08-11T11:46:47.729Z,22.66
2022-08-11T11:49:17.203Z,21.92
2022-08-11T11:51:50.334Z,21.75
2022-08-11T11:54:18.306Z,23.12
2022-08-11T11:56:45.604Z,22.60
2022-08-11T11:59:31.564Z,23.03
2022-08-11T12:01:58.991Z,23.22
2022-08-11T12:04:26.626Z,23.68
2022-08-11T12:07:13.755Z,22.56
2022-08-11T12:09:41.701Z,21.88
2022-08-11T12:12:27.631Z,21.91
2022-08-11T12:14:55.186Z,22.73
2022-08-11T12:17:22.360Z,23.52
2022-08-11T12:19:49.544Z,22.92
2022-08-11T12:22:35.636Z,22.60
2022-08-11T12:25:21.469Z,22.15
2022-08-11T12:27:49.341Z,23.39
2022-08-11T12:30:16.522Z,22.81
2022-08-11T12:32:43.776Z,21.67
2022-08-11T12:35:11.455Z,23.52
2022-08-11T12:37:43.793Z,24.00
2022-08-11T12:40:42.225Z,25.01
2022-08-11T12:43:39.959Z,23.79
2022-08-11T12:46:08.969Z,24.22
2022-08-11T12:49:00.459Z,24.06
2022-08-11T12:52:13.815Z,23.86
2022-08-11T12:54:57.459Z,24.78
2022-08-11T12:57:47.230Z,25.82
2022-08-11T13:00:33.422Z,25.27
2022-08-11T13:03:19.680Z,23.90
2022-08-11T13:05:47.777Z,25.32
2022-08-11T13:08:15.481Z,24.21
2022-08-11T13:11:02.270Z,24.81
2022-08-11T13:13:53.539Z,24.23
2022-08-11T13:16:17.163Z,23.91
2022-08-11T13:18:44.750Z,23.53
2022-08-11T13:21:11.992Z,24.13
2022-08-11T13:24:01.448Z,24.91
2022-08-11T13:26:46.842Z,24.10
2022-08-11T13:29:18.545Z,23.67
2022-08-11T13:31:46.040Z,24.88
2022-08-11T13:34:13.292Z,26.11
2022-08-11T13:36:40.829Z,24.52
2022-08-11T13:39:08.141Z,24.70
2022-08-11T13:41:39.380Z,24.23
2022-08-11T13:44:07.290Z,25.49
2022-08-11T13:46:34.714Z,25.83
2022-08-11T13:49:02.390Z,25.76
2022-08-11T13:51:35.836Z,25.54
2022-08-11T13:54:07.332Z,24.81
2022-08-11T13:56:35.518Z,26.66
2022-08-11T13:59:02.766Z,25.51
2022-08-11T14:02:20.019Z,27.23
2022-08-11T14:39:23.753Z,28.14
2022-08-11T14:42:13.387Z,28.81
2022-08-11T14:45:02.475Z,28.54
2022-08-11T14:47:31.721Z,28.65
2022-08-11T14:50:10.398Z,28.05
2022-08-11T14:52:47.545Z,27.57
2022-08-11T14:55:33.087Z,27.86
2022-08-11T14:58:00.826Z,27.47
2022-08-11T15:00:28.099Z,28.49
2022-08-11T15:03:10.955Z,28.56
2022-08-11T15:05:54.323Z,28.49
2022-08-11T15:08:53.790Z,27.22
2022-08-11T15:11:40.487Z,26.61
2022-08-11T15:14:08.149Z,27.06
2022-08-11T15:16:55.359Z,27.28
2022-08-11T15:19:22.621Z,28.04
2022-08-11T15:22:08.440Z,28.15
2022-08-11T15:24:36.649Z,27.35
2022-08-11T15:27:30.185Z,28.07
2022-08-11T15:30:32.149Z,27.56
2022-08-11T15:33:21.420Z,27.34
2022-08-11T15:36:07.481Z,27.01
2022-08-11T15:38:36.371Z,27.01
2022-08-11T15:41:22.409Z,27.27
2022-08-11T15:44:10.190Z,26.93
2022-08-11T15:46:49.566Z,27.66
2022-08-11T15:49:23.691Z,26.96
2022-08-11T15:51:55.620Z,26.95
2022-08-11T15:54:25.256Z,26.34
2022-08-11T15:56:55.164Z,25.88
2022-08-11T15:59:43.835Z,25.62
2022-08-11T16:02:30.811Z,26.28
2022-08-11T16:05:02.406Z,26.48
2022-08-11T16:07:36.416Z,26.32
2022-08-11T16:10:18.915Z,26.15
2022-08-11T16:13:03.657Z,25.96
2022-08-11T16:16:11.183Z,25.96
2022-08-11T16:18:43.355Z,25.92
2022-08-11T16:21:33.820Z,25.63
2022-08-11T16:23:59.468Z,25.32
2022-08-11T16:27:07.472Z,25.59
2022-08-11T16:29:14.179Z,25.47
2022-08-11T16:31:41.616Z,25.83
2022-08-11T16:34:28.748Z,24.96
2022-08-11T16:37:15.166Z,25.20
2022-08-11T16:39:42.469Z,24.94
2022-08-11T16:43:05.440Z,25.23
2022-08-11T16:45:38.708Z,25.18
2022-08-11T16:48:33.075Z,25.55
2022-08-11T16:50:53.963Z,26.32
2022-08-11T16:53:21.406Z,27.26
2022-08-11T16:56:08.574Z,27.80
2022-08-11T16:58:54.999Z,28.79
2022-08-11T17:01:23.350Z,28.63
2022-08-11T17:04:16.905Z,28.95
2022-08-11T17:07:03.339Z,29.63
2022-08-11T17:10:39.652Z,30.12
2022-08-11T17:13:08.830Z,29.56
2022-08-11T17:16:00.465Z,29.29
2022-08-11T17:18:46.763Z,29.59
2022-08-11T17:21:23.482Z,29.83
2022-08-11T17:23:52.624Z,29.84
2022-08-11T17:26:23.458Z,30.11
2022-08-11T17:28:53.068Z,30.60
2022-08-11T17:31:40.147Z,30.21
2022-08-11T17:34:26.567Z,31.47
2022-08-11T17:36:54.813Z,32.28
2022-08-11T17:39:24.466Z,33.29
2022-08-11T17:42:10.917Z,33.89
2022-08-11T17:44:57.275Z,34.36
2022-08-11T17:47:43.154Z,34.06
2022-08-11T17:50:17.044Z,34.98
2022-08-11T17:53:04.630Z,35.37
2022-08-11T17:55:53.391Z,36.52
2022-08-11T17:58:39.527Z,36.86
2022-08-11T18:01:09.229Z,37.30
2022-08-11T18:03:39.879Z,37.52
2022-08-11T18:06:12.688Z,37.16
2022-08-11T18:08:59.966Z,38.36
2022-08-11T18:12:11.101Z,37.60
2022-08-11T18:14:52.071Z,37.47
2022-08-11T18:17:38.157Z,38.02
2022-08-11T18:20:25.105Z,38.31
2022-08-11T18:23:11.104Z,38.14
2022-08-11T18:26:02.910Z,37.95
2022-08-11T18:28:54.913Z,38.82
2022-08-11T18:31:40.718Z,39.58
2022-08-11T18:34:28.294Z,40.08
2022-08-11T18:37:28.644Z,39.57
2022-08-11T18:40:28.638Z,38.89
2022-08-11T18:43:16.429Z,39.20
2022-08-11T18:46:07.059Z,39.17
2022-08-11T18:48:54.636Z,40.11
2022-08-11T18:51:41.841Z,38.58
2022-08-11T18:54:28.720Z,37.69
2022-08-11T18:57:15.785Z,38.56
2022-08-11T19:00:02.545Z,38.59
2022-08-11T19:02:50.047Z,38.31
2022-08-11T19:06:32.010Z,39.32
2022-08-11T19:08:45.407Z,38.76
2022-08-11T19:11:31.662Z,39.02
2022-08-11T19:14:17.658Z,38.03
2022-08-11T19:17:04.455Z,37.70
2022-08-11T19:19:50.427Z,36.96
2022-08-11T19:22:36.835Z,37.35
2022-08-11T19:25:25.607Z,37.11
2022-08-11T19:28:12.252Z,38.28
2022-08-11T19:30:58.253Z,38.13
2022-08-11T19:34:00.325Z,37.49
2022-08-11T19:36:50.209Z,37.17
2022-08-11T19:39:37.482Z,36.75
2022-08-11T19:42:24.862Z,37.20
2022-08-11T19:45:11.139Z,36.59
2022-08-11T19:48:20.755Z,36.79
2022-08-11T19:51:03.197Z,35.99
2022-08-11T19:53:49.214Z,35.99
2022-08-11T19:56:35.392Z,36.50
2022-08-11T19:59:21.413Z,35.61
2022-08-11T20:02:14.245Z,35.94
2022-08-11T20:05:00.897Z,35.79
2022-08-11T20:07:46.878Z,37.15
2022-08-11T20:10:33.128Z,36.65
2022-08-11T20:13:21.363Z,37.64
2022-08-11T20:16:07.921Z,38.03
2022-08-11T20:18:53.912Z,37.87
2022-08-11T20:21:40.141Z,38.16
2022-08-11T20:24:26.209Z,38.93
2022-08-11T20:27:19.011Z,40.08
2022-08-11T20:30:10.815Z,39.07
2022-08-11T20:32:57.124Z,38.62
2022-08-11T20:35:43.019Z,38.24
2022-08-11T20:38:29.124Z,37.88
2022-08-11T20:41:16.159Z,38.31
2022-08-11T20:44:05.480Z,37.82
2022-08-11T20:46:57.679Z,38.11
2022-08-11T20:49:53.701Z,38.06
2022-08-11T20:52:44.155Z,37.34
2022-08-11T21:01:46.420Z,37.45
2022-08-11T21:04:32.780Z,37.73
2022-08-11T21:07:28.196Z,37.67
2022-08-11T21:10:22.865Z,37.65
2022-08-11T21:13:25.118Z,37.26
2022-08-11T21:16:25.543Z,36.98
2022-08-11T21:19:59.497Z,37.40
2022-08-11T21:22:31.530Z,37.59
2022-08-11T21:25:17.682Z,37.72
2022-08-11T21:28:03.724Z,37.88
2022-08-11T21:30:49.862Z,37.94
2022-08-11T21:33:35.966Z,38.41
2022-08-11T21:36:22.321Z,38.23
2022-08-11T21:39:08.228Z,38.13
2022-08-11T21:41:54.398Z,38.48
2022-08-11T21:44:40.408Z,38.67
2022-08-11T21:47:42.951Z,38.94
2022-08-11T21:50:30.143Z,39.13
2022-08-11T21:53:16.333Z,39.48
2022-08-11T21:56:02.323Z,39.53
2022-08-11T21:58:49.177Z,40.68
2022-08-11T22:01:35.125Z,41.19
2022-08-11T22:04:22.018Z,41.14
2022-08-11T22:07:08.350Z,42.56
2022-08-11T22:09:54.588Z,41.61
2022-08-11T22:12:44.724Z,40.89
2022-08-11T22:15:31.554Z,40.18
2022-08-11T22:18:19.042Z,39.75
2022-08-11T22:21:05.277Z,39.49
2022-08-11T22:23:55.574Z,39.37
2022-08-11T22:26:42.452Z,38.90
2022-08-11T22:29:50.669Z,39.71
2022-08-11T22:32:37.488Z,39.93
2022-08-11T22:35:23.670Z,39.30
2022-08-11T22:38:15.116Z,39.30
2022-08-11T22:41:01.136Z,40.07
2022-08-11T22:43:47.309Z,40.02
2022-08-11T22:46:33.487Z,40.69
2022-08-11T22:49:19.822Z,40.65
2022-08-11T22:52:07.905Z,40.71
2022-08-11T22:54:54.145Z,40.23
2022-08-11T22:57:40.180Z,40.01
2022-08-11T23:00:30.419Z,41.14
2022-08-11T23:03:37.169Z,40.59
2022-08-11T23:06:23.378Z,40.28
2022-08-11T23:09:09.435Z,39.89
2022-08-11T23:12:05.962Z,39.67
2022-08-11T23:14:57.577Z,39.52
2022-08-11T23:17:44.453Z,39.97
2022-08-11T23:20:39.222Z,39.97
2022-08-11T23:23:36.194Z,39.50
2022-08-11T23:26:22.125Z,39.52
2022-08-11T23:29:08.298Z,39.30
2022-08-11T23:31:54.228Z,39.79
2022-08-11T23:35:03.836Z,39.98
2022-08-11T23:37:47.548Z,39.41
2022-08-11T23:40:33.752Z,39.30
2022-08-11T23:43:19.463Z,39.40
2022-08-11T23:46:05.747Z,39.32
2022-08-11T23:48:51.342Z,40.45
2022-08-11T23:51:37.786Z,41.24
2022-08-11T23:54:27.875Z,40.81
2022-08-11T23:57:13.905Z,40.51
